createdAt,value
2022-08-26T00:00:36.896Z,25.14
2022-08-26T00:03:41.555Z,25.13
2022-08-26T00:06:46.162Z,25.10
2022-08-26T00:09:50.114Z,25.07
2022-08-26T00:12:56.512Z,25.05
2022-08-26T00:15:59.356Z,25.03
2022-08-26T00:19:01.996Z,25.01
2022-08-26T00:22:05.192Z,24.99
2022-08-26T00:25:07.874Z,24.93
2022-08-26T00:28:12.057Z,24.90
2022-08-26T00:31:14.527Z,24.85
2022-08-26T00:34:19.414Z,24.84
2022-08-26T00:37:22.724Z,24.81
2022-08-26T00:40:35.732Z,24.78
2022-08-26T00:43:47.076Z,24.78
2022-08-26T00:46:58.350Z,24.76
2022-08-26T00:50:02.079Z,24.73
2022-08-26T00:53:21.451Z,24.73
2022-08-26T00:56:26.453Z,24.71
2022-08-26T00:59:32.883Z,24.71
2022-08-26T01:02:35.476Z,24.70
2022-08-26T01:05:41.997Z,24.67
2022-08-26T01:08:44.776Z,24.60
2022-08-26T01:11:49.557Z,24.57
2022-08-26T01:14:51.959Z,24.54
2022-08-26T01:17:54.699Z,24.54
2022-08-26T01:21:00.079Z,24.52
2022-08-26T01:24:02.905Z,24.48
2022-08-26T01:27:07.011Z,24.47
2022-08-26T01:30:11.649Z,24.45
2022-08-26T01:33:15.988Z,24.41
2022-08-26T01:36:19.349Z,24.38
2022-08-26T01:39:23.016Z,24.36
2022-08-26T01:42:27.005Z,24.32
2022-08-26T01:45:32.320Z,24.31
2022-08-26T01:48:35.665Z,24.23
2022-08-26T01:51:39.247Z,24.22
2022-08-26T01:54:42.673Z,24.19
2022-08-26T01:57:52.031Z,24.16
2022-08-26T02:00:59.558Z,24.11
2022-08-26T02:04:05.162Z,24.08
2022-08-26T02:07:09.186Z,24.04
2022-08-26T02:10:11.625Z,24.02
2022-08-26T02:13:14.272Z,23.97
2022-08-26T02:16:20.077Z,23.96
2022-08-26T02:19:25.966Z,23.95
2022-08-26T02:22:28.504Z,23.93
2022-08-26T02:25:35.336Z,23.91
2022-08-26T02:28:41.184Z,23.90
2022-08-26T02:31:44.133Z,23.90
2022-08-26T02:34:46.551Z,23.84
2022-08-26T02:37:50.068Z,23.84
2022-08-26T02:40:52.828Z,23.79
2022-08-26T02:43:55.955Z,23.75
2022-08-26T02:46:58.376Z,23.69
2022-08-26T02:50:01.082Z,23.69
2022-08-26T02:53:03.668Z,23.65
2022-08-26T02:56:09.772Z,23.60
2022-08-26T02:59:15.435Z,23.61
2022-08-26T03:02:18.225Z,23.58
2022-08-26T03:05:22.110Z,23.58
2022-08-26T03:08:26.832Z,23.55
2022-08-26T03:11:33.138Z,23.51
2022-08-26T03:14:36.228Z,23.54
2022-08-26T03:17:38.664Z,23.47
2022-08-26T03:20:42.341Z,23.46
2022-08-26T03:23:46.554Z,23.45
2022-08-26T03:26:52.597Z,23.49
2022-08-26T03:30:13.836Z,23.44
2022-08-26T03:33:17.925Z,23.43
2022-08-26T03:36:20.180Z,23.41
2022-08-26T03:39:22.891Z,23.41
2022-08-26T03:42:25.179Z,23.38
2022-08-26T03:45:28.375Z,23.34
2022-08-26T03:48:30.592Z,23.30
2022-08-26T03:51:33.846Z,23.28
2022-08-26T03:54:36.866Z,23.25
2022-08-26T03:57:39.642Z,23.26
2022-08-26T04:00:44.965Z,23.25
2022-08-26T04:03:58.214Z,23.26
2022-08-26T04:07:02.781Z,23.26
2022-08-26T04:10:05.793Z,23.26
2022-08-26T04:13:08.220Z,23.25
2022-08-26T04:16:11.138Z,23.25
2022-08-26T04:19:15.094Z,23.26
2022-08-26T04:22:24.784Z,23.29
2022-08-26T04:25:27.495Z,23.33
2022-08-26T04:28:30.512Z,23.36
2022-08-26T04:31:33.767Z,23.38
2022-08-26T04:34:37.776Z,23.39
2022-08-26T04:37:43.026Z,23.42
2022-08-26T04:40:46.658Z,23.47
2022-08-26T04:43:50.310Z,23.57
2022-08-26T04:46:54.160Z,23.55
2022-08-26T04:49:58.121Z,23.58
2022-08-26T04:53:00.974Z,23.63
2022-08-26T04:56:04.037Z,23.71
2022-08-26T04:59:08.295Z,23.75
2022-08-26T05:02:19.731Z,23.81
2022-08-26T05:05:22.401Z,23.87
2022-08-26T05:08:25.075Z,23.94
2022-08-26T05:11:30.492Z,23.99
2022-08-26T05:14:32.966Z,24.04
2022-08-26T05:17:37.143Z,24.12
2022-08-26T05:20:40.468Z,24.18
2022-08-26T05:23:43.475Z,24.26
2022-08-26T05:26:47.297Z,24.33
2022-08-26T05:29:54.546Z,24.41
2022-08-26T05:32:57.402Z,24.45
2022-08-26T05:36:05.945Z,24.52
2022-08-26T05:39:10.674Z,24.60
2022-08-26T05:42:13.543Z,24.71
2022-08-26T05:45:15.804Z,24.74
2022-08-26T05:48:22.570Z,24.78
2022-08-26T05:51:26.539Z,24.89
2022-08-26T05:54:34.815Z,24.89
2022-08-26T05:57:42.251Z,24.99
2022-08-26T06:00:46.184Z,25.03
2022-08-26T06:03:51.657Z,25.05
2022-08-26T06:06:54.144Z,25.13
2022-08-26T06:10:15.352Z,25.23
2022-08-26T06:13:31.920Z,25.33
2022-08-26T06:16:40.909Z,25.46
2022-08-26T06:19:43.680Z,25.59
2022-08-26T06:23:05.330Z,25.66
2022-08-26T06:26:07.969Z,25.77
2022-08-26T06:29:15.465Z,25.96
2022-08-26T06:32:27.315Z,26.16
2022-08-26T06:35:29.878Z,26.34
2022-08-26T06:38:32.756Z,26.54
2022-08-26T06:41:39.048Z,26.69
2022-08-26T06:44:45.194Z,26.84
2022-08-26T06:47:47.748Z,26.98
2022-08-26T06:51:01.422Z,27.23
2022-08-26T06:54:04.785Z,27.54
2022-08-26T06:57:07.283Z,27.77
2022-08-26T07:00:12.928Z,28.00
2022-08-26T07:03:16.649Z,28.19
2022-08-26T07:06:21.472Z,28.39
2022-08-26T07:09:25.727Z,28.58
2022-08-26T07:12:28.567Z,28.77
2022-08-26T07:15:31.633Z,29.08
2022-08-26T07:18:35.498Z,29.36
2022-08-26T07:21:41.982Z,29.66
2022-08-26T07:24:44.568Z,30.01
2022-08-26T07:27:47.067Z,30.35
2022-08-26T07:30:57.185Z,30.62
2022-08-26T07:34:00.684Z,30.96
2022-08-26T07:37:03.666Z,31.28
2022-08-26T07:40:06.373Z,31.67
2022-08-26T07:43:09.809Z,32.01
2022-08-26T07:46:20.752Z,32.22
2022-08-26T07:49:29.886Z,32.58
2022-08-26T07:52:32.497Z,33.04
2022-08-26T07:55:37.436Z,33.42
2022-08-26T07:58:40.308Z,33.52
2022-08-26T08:01:45.035Z,33.86
2022-08-26T08:04:48.096Z,34.11
2022-08-26T08:07:53.672Z,34.55
2022-08-26T08:11:21.087Z,35.02
2022-08-26T08:14:23.315Z,35.62
2022-08-26T08:17:26.227Z,35.85
2022-08-26T08:20:28.820Z,36.23
2022-08-26T08:23:31.878Z,36.83
2022-08-26T08:26:35.286Z,37.15
2022-08-26T08:29:38.049Z,37.55
2022-08-26T08:32:43.418Z,37.83
2022-08-26T08:35:46.231Z,38.13
2022-08-26T08:38:48.729Z,38.47
2022-08-26T08:41:54.635Z,38.57
2022-08-26T08:44:58.511Z,38.97
2022-08-26T08:48:04.333Z,39.43
2022-08-26T08:51:19.880Z,39.84
2022-08-26T08:54:26.326Z,40.22
2022-08-26T08:57:38.512Z,40.56
2022-08-26T09:00:54.155Z,40.97
2022-08-26T09:04:08.612Z,41.24
2022-08-26T09:07:13.623Z,41.54
2022-08-26T09:10:25.319Z,41.97
2022-08-26T09:13:29.140Z,42.31
2022-08-26T09:16:34.149Z,42.82
2022-08-26T09:19:43.027Z,43.10
2022-08-26T09:22:45.941Z,43.58
2022-08-26T09:26:18.381Z,43.84
2022-08-26T09:29:23.363Z,43.67
2022-08-26T09:32:27.111Z,43.92
2022-08-26T09:35:34.084Z,44.28
2022-08-26T09:38:37.353Z,44.50
2022-08-26T09:41:40.004Z,44.79
2022-08-26T09:44:59.600Z,45.18
2022-08-26T09:48:02.314Z,45.46
2022-08-26T09:51:26.467Z,45.66
2022-08-26T09:54:30.176Z,45.76
2022-08-26T09:57:45.202Z,45.74
2022-08-26T10:00:56.108Z,45.75
2022-08-26T10:04:08.166Z,45.96
2022-08-26T10:07:30.372Z,46.20
2022-08-26T10:10:38.678Z,46.37
2022-08-26T10:13:49.346Z,46.66
2022-08-26T10:17:01.619Z,46.38
2022-08-26T10:20:24.092Z,46.13
2022-08-26T10:23:29.107Z,45.93
2022-08-26T10:26:49.535Z,46.02
2022-08-26T10:29:54.898Z,45.70
2022-08-26T10:33:03.458Z,45.93
2022-08-26T10:36:30.365Z,46.10
2022-08-26T10:39:36.214Z,46.31
2022-08-26T10:42:42.668Z,46.49
2022-08-26T10:45:50.514Z,46.58
2022-08-26T10:48:53.505Z,46.48
2022-08-26T10:52:02.649Z,46.62
2022-08-26T10:55:24.353Z,46.74
2022-08-26T10:58:49.434Z,46.86
2022-08-26T11:02:11.655Z,46.98
2022-08-26T11:05:14.315Z,46.79
2022-08-26T11:08:17.097Z,46.78
2022-08-26T11:11:38.298Z,46.59
2022-08-26T11:14:53.228Z,46.46
2022-08-26T11:18:00.163Z,46.20
2022-08-26T11:21:03.188Z,46.03
2022-08-26T11:24:31.815Z,45.71
2022-08-26T11:27:37.629Z,45.91
2022-08-26T11:30:42.696Z,45.97
2022-08-26T11:33:59.780Z,45.78
2022-08-26T11:37:05.094Z,45.75
2022-08-26T11:40:12.496Z,45.46
2022-08-26T11:43:20.648Z,45.06
2022-08-26T11:46:28.571Z,44.92
2022-08-26T11:49:32.027Z,44.95
2022-08-26T11:52:36.181Z,45.00
2022-08-26T11:55:42.879Z,45.14
2022-08-26T11:58:46.962Z,45.13
2022-08-26T12:01:50.465Z,44.68
2022-08-26T12:04:54.992Z,44.28
2022-08-26T12:07:59.391Z,43.85
2022-08-26T12:11:06.991Z,43.59
2022-08-26T12:14:16.835Z,43.55
2022-08-26T12:17:26.300Z,43.63
2022-08-26T12:20:30.210Z,43.78
2022-08-26T12:23:34.008Z,43.72
2022-08-26T12:26:40.133Z,43.70
2022-08-26T12:29:43.049Z,43.67
2022-08-26T12:32:58.071Z,43.68
2022-08-26T12:36:03.019Z,43.63
2022-08-26T12:39:10.459Z,43.22
2022-08-26T12:42:13.171Z,43.18
2022-08-26T12:45:26.151Z,43.06
2022-08-26T12:48:30.128Z,42.67
2022-08-26T12:51:33.149Z,42.44
2022-08-26T12:54:56.861Z,42.08
2022-08-26T12:58:18.391Z,41.92
2022-08-26T13:01:22.455Z,41.90
2022-08-26T13:04:31.768Z,42.11
2022-08-26T13:07:34.448Z,41.86
2022-08-26T13:10:37.915Z,41.53
2022-08-26T13:13:41.099Z,41.56
2022-08-26T13:16:43.649Z,41.42
2022-08-26T13:19:46.827Z,41.34
2022-08-26T13:22:53.863Z,41.32
2022-08-26T13:26:01.973Z,41.31
2022-08-26T13:29:09.567Z,41.21
2022-08-26T13:32:13.943Z,41.15
2022-08-26T13:35:16.235Z,41.14
2022-08-26T13:38:33.329Z,40.77
2022-08-26T13:41:36.732Z,40.66
2022-08-26T13:44:40.650Z,40.60
2022-08-26T13:47:42.911Z,40.53
2022-08-26T13:50:46.527Z,40.41
2022-08-26T13:53:49.439Z,40.29
2022-08-26T13:56:52.120Z,40.11
2022-08-26T13:59:56.547Z,39.91
2022-08-26T14:03:00.632Z,39.77
2022-08-26T14:06:03.722Z,39.63
2022-08-26T14:09:06.260Z,39.41
2022-08-26T14:12:08.907Z,39.21
2022-08-26T14:15:12.198Z,39.11
2022-08-26T14:18:17.240Z,38.96
2022-08-26T14:21:20.615Z,38.73
2022-08-26T14:24:23.681Z,38.53
2022-08-26T14:27:26.175Z,38.46
2022-08-26T14:30:29.209Z,38.35
2022-08-26T14:33:32.768Z,38.24
2022-08-26T14:36:35.714Z,38.00
2022-08-26T14:39:38.223Z,37.75
2022-08-26T14:42:46.732Z,37.45
2022-08-26T14:45:55.231Z,37.32
2022-08-26T14:49:01.747Z,37.16
2022-08-26T14:52:05.009Z,37.02
2022-08-26T14:55:07.722Z,36.88
2022-08-26T14:58:10.405Z,36.74
2022-08-26T15:01:13.122Z,36.51
2022-08-26T15:04:15.623Z,36.33
2022-08-26T15:07:18.658Z,36.22
2022-08-26T15:10:22.631Z,36.06
2022-08-26T15:13:25.177Z,35.90
2022-08-26T15:16:28.699Z,35.77
2022-08-26T15:19:31.287Z,35.60
2022-08-26T15:22:33.749Z,35.52
2022-08-26T15:25:36.256Z,35.34
2022-08-26T15:28:38.827Z,35.24
2022-08-26T15:31:41.508Z,35.07
2022-08-26T15:34:44.057Z,34.91
2022-08-26T15:37:46.636Z,34.78
2022-08-26T15:40:49.988Z,34.65
2022-08-26T15:43:52.843Z,34.52
2022-08-26T15:46:58.668Z,34.35
2022-08-26T15:50:01.776Z,34.17
2022-08-26T15:53:05.477Z,34.00
2022-08-26T15:56:08.112Z,33.88
2022-08-26T15:59:11.639Z,33.72
2022-08-26T16:02:14.567Z,33.52
2022-08-26T16:05:18.334Z,33.38
2022-08-26T16:08:20.841Z,33.31
2022-08-26T16:11:23.865Z,33.24
2022-08-26T16:14:26.167Z,33.19
2022-08-26T16:17:28.859Z,33.10
2022-08-26T16:20:32.581Z,33.03
2022-08-26T16:23:36.055Z,32.89
2022-08-26T16:26:39.378Z,32.77
2022-08-26T16:29:42.114Z,32.62
2022-08-26T16:32:44.304Z,32.53
2022-08-26T16:35:47.015Z,32.46
2022-08-26T16:38:54.354Z,32.45
2022-08-26T16:41:57.126Z,32.32
2022-08-26T16:44:59.559Z,32.24
2022-08-26T16:48:02.305Z,32.13
2022-08-26T16:51:04.552Z,32.04
2022-08-26T16:54:08.351Z,32.01
2022-08-26T16:57:12.178Z,31.88
2022-08-26T17:00:18.744Z,31.76
2022-08-26T17:03:21.000Z,31.66
2022-08-26T17:06:23.893Z,31.64
2022-08-26T17:09:26.531Z,31.57
2022-08-26T17:12:29.258Z,31.47
2022-08-26T17:15:31.689Z,31.41
2022-08-26T17:18:37.191Z,31.36
2022-08-26T17:21:39.860Z,31.28
2022-08-26T17:24:43.009Z,31.24
2022-08-26T17:27:46.150Z,31.13
2022-08-26T17:30:48.987Z,31.07
2022-08-26T17:33:53.907Z,30.95
2022-08-26T17:36:57.003Z,30.89
2022-08-26T17:39:59.729Z,30.80
2022-08-26T17:43:02.455Z,30.74
2022-08-26T17:46:06.954Z,30.65
2022-08-26T17:49:10.420Z,30.56
2022-08-26T17:52:13.301Z,30.47
2022-08-26T17:55:16.871Z,30.40
2022-08-26T17:58:21.486Z,30.35
2022-08-26T18:01:26.824Z,30.29
2022-08-26T18:04:29.511Z,30.22
2022-08-26T18:07:32.453Z,30.13
2022-08-26T18:10:44.134Z,30.06
2022-08-26T18:13:47.590Z,30.00
2022-08-26T18:16:50.990Z,29.93
2022-08-26T18:19:53.676Z,29.85
2022-08-26T18:22:56.204Z,29.80
2022-08-26T18:25:58.624Z,29.75
2022-08-26T18:29:01.879Z,29.69
2022-08-26T18:32:04.397Z,29.65
2022-08-26T18:35:07.231Z,29.58
2022-08-26T18:38:11.430Z,29.59
2022-08-26T18:41:14.741Z,29.49
2022-08-26T18:44:20.539Z,29.44
2022-08-26T18:47:23.267Z,29.40
2022-08-26T18:50:25.775Z,29.34
2022-08-26T18:53:28.473Z,29.28
2022-08-26T18:56:31.639Z,29.23
2022-08-26T18:59:34.194Z,29.16
2022-08-26T19:02:36.837Z,29.10
2022-08-26T19:05:40.821Z,29.07
2022-08-26T19:08:44.810Z,29.02
2022-08-26T19:11:49.624Z,28.99
2022-08-26T19:14:52.431Z,28.93
2022-08-26T19:17:56.338Z,28.88
2022-08-26T19:20:59.020Z,28.83
2022-08-26T19:24:03.858Z,28.76
2022-08-26T19:27:06.362Z,28.72
2022-08-26T19:30:09.908Z,28.67
2022-08-26T19:33:13.417Z,28.62
2022-08-26T19:36:22.008Z,28.58
2022-08-26T19:39:25.352Z,28.53
2022-08-26T19:42:27.990Z,28.49
2022-08-26T19:45:30.980Z,28.45
2022-08-26T19:48:33.479Z,28.42
2022-08-26T19:51:36.605Z,28.38
2022-08-26T19:54:39.729Z,28.34
2022-08-26T19:57:43.335Z,28.28
2022-08-26T20:00:46.081Z,28.24
2022-08-26T20:03:49.414Z,28.18
2022-08-26T20:06:51.886Z,28.14
2022-08-26T20:10:00.586Z,28.11
2022-08-26T20:13:03.010Z,28.08
2022-08-26T20:16:05.881Z,28.06
2022-08-26T20:19:26.800Z,28.02
2022-08-26T20:22:29.819Z,27.98
2022-08-26T20:25:32.754Z,27.94
2022-08-26T20:28:35.470Z,27.90
2022-08-26T20:31:38.450Z,27.86
2022-08-26T20:34:41.717Z,27.81
2022-08-26T20:37:44.000Z,27.78
2022-08-26T20:40:46.731Z,27.75
2022-08-26T20:43:48.979Z,27.67
2022-08-26T20:46:51.913Z,27.63
2022-08-26T20:49:54.399Z,27.62
2022-08-26T20:52:57.163Z,27.58
2022-08-26T20:56:04.024Z,27.53
2022-08-26T20:59:07.481Z,27.45
2022-08-26T21:02:10.058Z,27.44
2022-08-26T21:05:12.848Z,27.40
2022-08-26T21:08:18.128Z,27.38
2022-08-26T21:11:21.333Z,27.38
2022-08-26T21:14:25.871Z,27.34
2022-08-26T21:17:29.304Z,27.30
2022-08-26T21:20:33.316Z,27.26
2022-08-26T21:23:36.554Z,27.25
2022-08-26T21:26:38.890Z,27.22
2022-08-26T21:29:41.641Z,27.18
2022-08-26T21:32:43.989Z,27.17
2022-08-26T21:35:53.149Z,27.16
2022-08-26T21:38:56.732Z,27.14
2022-08-26T21:41:59.404Z,27.12
2022-08-26T21:45:03.252Z,27.13
2022-08-26T21:48:07.879Z,27.14
2022-08-26T21:51:11.193Z,27.15
2022-08-26T21:54:14.247Z,27.14
2022-08-26T21:57:17.117Z,27.12
2022-08-26T22:00:20.046Z,27.09
2022-08-26T22:03:22.574Z,27.07
2022-08-26T22:06:26.192Z,27.05
2022-08-26T22:09:30.984Z,27.02
2022-08-26T22:12:34.446Z,26.98
2022-08-26T22:15:40.343Z,26.95
2022-08-26T22:18:45.278Z,26.90
2022-08-26T22:21:51.503Z,26.84
2022-08-26T22:24:53.905Z,26.80
2022-08-26T22:27:56.462Z,26.77
2022-08-26T22:30:58.925Z,26.71
2022-08-26T22:34:01.705Z,26.67
2022-08-26T22:37:04.189Z,26.63
2022-08-26T22:40:06.937Z,26.58
2022-08-26T22:43:09.424Z,26.53
2022-08-26T22:46:22.684Z,26.53
2022-08-26T22:49:25.168Z,26.48
2022-08-26T22:52:27.807Z,26.43
2022-08-26T22:55:30.214Z,26.39
2022-08-26T22:58:33.652Z,26.34
2022-08-26T23:01:37.410Z,26.29
2022-08-26T23:04:40.211Z,26.25
2022-08-26T23:07:42.644Z,26.23
2022-08-26T23:10:46.314Z,26.19
2022-08-26T23:13:48.983Z,26.13
2022-08-26T23:16:51.946Z,26.10
2022-08-26T23:19:55.198Z,26.03
2022-08-26T23:22:58.611Z,26.00
2022-08-26T23:26:04.449Z,25.96
2022-08-26T23:29:09.570Z,25.93
2022-08-26T23:32:12.041Z,25.88
2022-08-26T23:35:14.569Z,25.85
2022-08-26T23:38:16.975Z,25.81
2022-08-26T23:41:19.636Z,25.77
2022-08-26T23:44:22.566Z,25.75
2022-08-26T23:47:25.260Z,25.71
2022-08-26T23:50:48.725Z,25.68
2022-08-26T23:53:51.392Z,25.64
2022-08-26T23:56:53.934Z,25.58
2022-08-26T23:59:56.410Z,25.57
